Time;durP1;ratioP1;P1;durP2;ratioP2;P2;SDS_P1;SDS_P2;PMS_P1;PMS_P2;Temp;Humidity;BMP_temperature;BMP_pressure;BME280_temperature;BME280_humidity;BME280_pressure;Samples;Min_cycle;Max_cycle;Signal;HPM_P1;HPM_P2
2022/05/10 00:01:33;;;;;;;107.75;46.13;;;;;;;;;;4957005;29;20047;-83
2022/05/10 00:04:19;;;;;;;40.35;19.35;;;;;;;;;;4962849;28;20365;-80
2022/05/10 00:07:05;;;;;;;28.60;13.43;;;;;;;;;;4956196;29;20509;-80
2022/05/10 00:09:50;;;;;;;16.55;7.63;;;;;;;;;;4948198;28;20043;-81
2022/05/10 00:12:36;;;;;;;10.25;5.80;;;;;;;;;;4956330;29;20047;-80
2022/05/10 00:15:22;;;;;;;12.50;5.15;;;;;;;;;;4956422;29;20047;-80
2022/05/10 00:18:14;;;;;;;8.35;5.30;;;;;;;;;;4944958;29;20040;-81
2022/05/10 00:20:58;;;;;;;6.90;4.15;;;;;;;;;;4936788;29;20048;-80
2022/05/10 00:23:45;;;;;;;7.53;3.88;;;;;;;;;;4936734;29;20457;-80
2022/05/10 00:26:31;;;;;;;9.55;4.30;;;;;;;;;;4937078;29;20389;-81
2022/05/10 00:29:16;;;;;;;6.43;3.72;;;;;;;;;;4923543;29;20503;-81
2022/05/10 00:32:02;;;;;;;8.52;3.83;;;;;;;;;;4939750;23;20487;-81
2022/05/10 00:34:47;;;;;;;7.75;3.60;;;;;;;;;;4959639;29;20051;-82
2022/05/10 00:37:33;;;;;;;4.55;2.90;;;;;;;;;;4959713;29;20043;-82
2022/05/10 00:40:22;;;;;;;4.93;2.70;;;;;;;;;;4959690;29;20047;-81
2022/05/10 00:43:37;;;;;;;4.32;3.13;;;;;;;;;;4959742;29;20043;-80
2022/05/10 00:46:32;;;;;;;5.18;3.00;;;;;;;;;;4959539;29;20043;-82
2022/05/10 00:49:36;;;;;;;5.05;3.00;;;;;;;;;;4945207;29;20055;-80
2022/05/10 00:52:30;;;;;;;6.77;3.20;;;;;;;;;;4947131;29;20051;-80
2022/05/10 00:55:23;;;;;;;9.85;3.83;;;;;;;;;;4966122;28;20497;-81
2022/05/10 00:58:16;;;;;;;9.80;3.20;;;;;;;;;;4959916;29;20043;-81
2022/05/10 01:01:03;;;;;;;6.25;3.47;;;;;;;;;;4959843;29;20039;-81
2022/05/10 01:03:55;;;;;;;10.63;3.40;;;;;;;;;;4965881;28;20043;-80
2022/05/10 01:06:56;;;;;;;7.13;3.05;;;;;;;;;;4959631;29;20043;-81
2022/05/10 01:09:56;;;;;;;6.47;3.50;;;;;;;;;;4959142;29;20485;-82
2022/05/10 01:12:50;;;;;;;8.05;4.63;;;;;;;;;;4959277;29;20036;-81
2022/05/10 01:15:38;;;;;;;11.27;6.75;;;;;;;;;;4959695;29;20385;-83
2022/05/10 01:18:23;;;;;;;9.55;5.85;;;;;;;;;;4959927;29;20039;-83
2022/05/10 01:21:23;;;;;;;6.68;4.90;;;;;;;;;;4959956;29;20047;-83
2022/05/10 01:24:41;;;;;;;8.95;4.72;;;;;;;;;;4959025;29;20043;-81
2022/05/10 01:27:46;;;;;;;7.65;3.70;;;;;;;;;;4959141;29;20051;-81
2022/05/10 01:30:32;;;;;;;5.88;3.30;;;;;;;;;;4944867;29;20052;-81
2022/05/10 01:33:30;;;;;;;6.80;3.40;;;;;;;;;;4958690;29;20039;-82
2022/05/10 01:36:51;;;;;;;7.28;3.20;;;;;;;;;;4958973;29;20047;-81
2022/05/10 01:39:55;;;;;;;6.53;3.65;;;;;;;;;;4959179;29;20043;-81
2022/05/10 01:42:50;;;;;;;6.55;3.13;;;;;;;;;;4958823;29;20047;-82
2022/05/10 01:45:53;;;;;;;7.30;3.35;;;;;;;;;;4959392;29;20039;-82
2022/05/10 01:48:41;;;;;;;7.30;3.30;;;;;;;;;;4959807;29;20043;-82
2022/05/10 01:51:33;;;;;;;4.80;3.28;;;;;;;;;;4958901;29;20044;-81
2022/05/10 01:54:56;;;;;;;11.27;3.28;;;;;;;;;;4958529;29;20055;-81
2022/05/10 01:57:42;;;;;;;10.40;3.63;;;;;;;;;;4970319;28;20051;-81
2022/05/10 02:00:28;;;;;;;11.50;4.15;;;;;;;;;;4963194;29;20043;-82
2022/05/10 02:03:21;;;;;;;8.20;4.35;;;;;;;;;;4964767;29;20051;-82
2022/05/10 02:06:32;;;;;;;8.98;4.35;;;;;;;;;;4964885;29;20055;-82
2022/05/10 02:09:36;;;;;;;10.15;3.88;;;;;;;;;;4970885;28;20043;-82
2022/05/10 02:12:31;;;;;;;7.57;3.38;;;;;;;;;;4958370;29;20043;-82
2022/05/10 02:15:24;;;;;;;5.60;3.20;;;;;;;;;;4957920;29;20043;-82
2022/05/10 02:18:19;;;;;;;4.75;3.40;;;;;;;;;;4964519;28;20047;-82
2022/05/10 02:21:15;;;;;;;7.13;3.38;;;;;;;;;;4943701;29;20397;-82
2022/05/10 02:24:08;;;;;;;4.57;3.03;;;;;;;;;;4957787;29;20051;-82
2022/05/10 02:27:20;;;;;;;11.10;3.60;;;;;;;;;;4957578;29;20508;-82
2022/05/10 02:30:07;;;;;;;8.90;4.40;;;;;;;;;;4957705;29;20055;-80
2022/05/10 02:33:19;;;;;;;7.75;3.80;;;;;;;;;;4957212;29;20051;-82
2022/05/10 02:36:04;;;;;;;9.40;4.18;;;;;;;;;;4964066;28;20417;-81
2022/05/10 02:38:50;;;;;;;10.63;5.28;;;;;;;;;;4957634;29;20040;-81
2022/05/10 02:41:35;;;;;;;8.35;4.25;;;;;;;;;;4956863;29;20052;-83
2022/05/10 02:44:21;;;;;;;8.15;5.18;;;;;;;;;;4957660;29;20055;-81
2022/05/10 02:47:08;;;;;;;10.80;5.85;;;;;;;;;;4961133;23;20054;-81
2022/05/10 02:49:53;;;;;;;8.20;5.25;;;;;;;;;;4925422;29;20052;-81
2022/05/10 02:52:39;;;;;;;14.88;5.53;;;;;;;;;;4918470;29;20048;-81
2022/05/10 02:55:40;;;;;;;15.50;5.28;;;;;;;;;;4919007;29;20482;-82
2022/05/10 02:58:37;;;;;;;8.57;5.00;;;;;;;;;;4919427;29;20044;-81
2022/05/10 03:01:46;;;;;;;9.80;5.00;;;;;;;;;;4918625;29;20048;-81
2022/05/10 03:04:39;;;;;;;8.77;4.28;;;;;;;;;;4919407;29;20048;-83
2022/05/10 03:07:26;;;;;;;8.10;3.95;;;;;;;;;;4919239;29;20486;-81
2022/05/10 03:10:12;;;;;;;12.05;4.07;;;;;;;;;;4919076;29;20052;-81
2022/05/10 03:12:58;;;;;;;8.32;4.28;;;;;;;;;;4918877;29;20044;-81
2022/05/10 03:15:44;;;;;;;11.90;5.10;;;;;;;;;;4919177;29;20509;-81
2022/05/10 03:18:29;;;;;;;8.95;4.28;;;;;;;;;;4918635;29;20052;-81
2022/05/10 03:21:15;;;;;;;9.25;4.65;;;;;;;;;;4918873;29;20048;-81
2022/05/10 03:24:01;;;;;;;9.30;4.30;;;;;;;;;;4924530;29;20486;-81
2022/05/10 03:26:49;;;;;;;7.20;4.10;;;;;;;;;;4918804;29;20052;-81
2022/05/10 03:29:36;;;;;;;8.88;4.13;;;;;;;;;;4924798;29;20056;-81
2022/05/10 03:32:22;;;;;;;10.63;4.63;;;;;;;;;;4918860;29;20044;-80
2022/05/10 03:35:07;;;;;;;9.73;4.00;;;;;;;;;;4918772;29;20494;-81
2022/05/10 03:37:53;;;;;;;7.63;3.58;;;;;;;;;;4918584;29;20478;-81
2022/05/10 03:40:38;;;;;;;5.55;3.88;;;;;;;;;;4925231;29;20048;-82
2022/05/10 03:43:26;;;;;;;10.63;3.80;;;;;;;;;;4918667;29;20044;-81
2022/05/10 03:46:12;;;;;;;8.45;3.78;;;;;;;;;;4918700;29;20048;-81
2022/05/10 03:48:57;;;;;;;8.75;3.72;;;;;;;;;;4933842;29;20043;-81
2022/05/10 03:51:42;;;;;;;10.68;4.80;;;;;;;;;;4936963;29;20040;-81
2022/05/10 03:54:28;;;;;;;8.02;3.72;;;;;;;;;;4937188;29;20051;-82
2022/05/10 03:57:13;;;;;;;9.05;4.13;;;;;;;;;;4922857;29;20055;-82
2022/05/10 03:59:59;;;;;;;12.00;5.10;;;;;;;;;;4937667;29;20043;-82
2022/05/10 04:02:45;;;;;;;16.15;5.03;;;;;;;;;;4937361;29;20056;-82
2022/05/10 04:05:31;;;;;;;12.40;5.35;;;;;;;;;;4936466;29;20044;-83
2022/05/10 04:08:16;;;;;;;15.85;5.10;;;;;;;;;;4937044;29;20497;-81
2022/05/10 04:11:04;;;;;;;9.95;5.00;;;;;;;;;;4936404;29;20384;-82
2022/05/10 04:13:49;;;;;;;13.88;4.68;;;;;;;;;;4958561;23;20052;-82
2022/05/10 04:16:36;;;;;;;12.35;4.28;;;;;;;;;;4956586;29;20043;-80
2022/05/10 04:19:22;;;;;;;8.77;4.60;;;;;;;;;;4962842;28;20046;-80
2022/05/10 04:22:07;;;;;;;13.05;5.55;;;;;;;;;;4956417;29;20039;-81
2022/05/10 04:24:53;;;;;;;12.85;5.93;;;;;;;;;;4956046;29;20047;-81
2022/05/10 04:27:39;;;;;;;12.48;5.38;;;;;;;;;;4956549;29;20047;-83
2022/05/10 04:30:25;;;;;;;17.05;5.47;;;;;;;;;;4964214;28;20043;-81
2022/05/10 04:33:11;;;;;;;13.35;4.78;;;;;;;;;;4958445;29;20484;-81
2022/05/10 04:35:56;;;;;;;11.18;5.22;;;;;;;;;;4958548;29;20397;-81
2022/05/10 04:38:44;;;;;;;10.70;5.80;;;;;;;;;;4956014;29;20051;-81
2022/05/10 04:41:33;;;;;;;10.68;5.28;;;;;;;;;;4956248;29;20401;-80
2022/05/10 04:44:18;;;;;;;12.50;5.18;;;;;;;;;;4956320;29;20047;-80
2022/05/10 04:47:04;;;;;;;8.27;4.30;;;;;;;;;;4956125;29;20043;-81
2022/05/10 04:49:49;;;;;;;8.43;4.18;;;;;;;;;;4962138;29;20043;-80
2022/05/10 04:52:35;;;;;;;13.02;5.00;;;;;;;;;;4955986;29;20047;-81
2022/05/10 04:55:21;;;;;;;11.40;4.10;;;;;;;;;;4956203;29;20155;-80
2022/05/10 04:58:08;;;;;;;9.27;4.32;;;;;;;;;;4961923;23;20056;-81
2022/05/10 05:00:56;;;;;;;8.70;4.20;;;;;;;;;;4962136;28;20051;-79
2022/05/10 05:03:44;;;;;;;7.57;4.18;;;;;;;;;;4955923;29;20043;-81
2022/05/10 05:06:30;;;;;;;13.27;4.50;;;;;;;;;;4955683;29;20043;-81
2022/05/10 05:09:15;;;;;;;9.48;4.20;;;;;;;;;;4955553;29;20052;-81
2022/05/10 05:12:01;;;;;;;11.00;4.30;;;;;;;;;;4956155;29;20387;-80
2022/05/10 05:14:46;;;;;;;10.73;4.05;;;;;;;;;;4956644;28;20496;-80
2022/05/10 05:17:32;;;;;;;11.57;5.20;;;;;;;;;;4965992;28;20055;-80
2022/05/10 05:20:18;;;;;;;14.63;4.55;;;;;;;;;;4959866;29;20055;-80
2022/05/10 05:23:08;;;;;;;12.23;3.92;;;;;;;;;;4959114;29;20488;-81
2022/05/10 05:25:55;;;;;;;7.57;4.32;;;;;;;;;;4959733;29;20047;-81
2022/05/10 05:28:40;;;;;;;11.70;4.45;;;;;;;;;;4959226;29;20051;-81
2022/05/10 05:31:26;;;;;;;14.15;4.88;;;;;;;;;;4959922;29;20393;-81
2022/05/10 05:34:11;;;;;;;7.30;4.00;;;;;;;;;;4959560;29;20052;-82
2022/05/10 05:40:11;;;;;;;10.70;4.65;;;;;;;;;;4959462;29;20051;-80
2022/05/10 05:42:57;;;;;;;16.70;4.70;;;;;;;;;;4965237;23;20409;-80
2022/05/10 05:45:44;;;;;;;16.52;4.10;;;;;;;;;;4969951;28;20373;-80
2022/05/10 05:48:29;;;;;;;13.15;3.63;;;;;;;;;;4960559;29;20047;-81
2022/05/10 05:51:15;;;;;;;10.88;3.78;;;;;;;;;;4969894;28;20051;-81
2022/05/10 05:54:00;;;;;;;7.13;3.92;;;;;;;;;;4960091;29;20043;-81
2022/05/10 05:56:45;;;;;;;10.88;3.10;;;;;;;;;;4954027;28;20039;-81
2022/05/10 05:59:32;;;;;;;8.50;3.38;;;;;;;;;;4958180;29;20039;-82
2022/05/10 06:02:19;;;;;;;8.13;3.70;;;;;;;;;;4944560;29;20047;-82
2022/05/10 06:05:06;;;;;;;8.05;3.45;;;;;;;;;;4958745;29;20051;-80
2022/05/10 06:07:51;;;;;;;4.95;2.90;;;;;;;;;;4958321;29;20043;-79
2022/05/10 06:10:37;;;;;;;10.35;4.18;;;;;;;;;;4958121;29;20485;-81
2022/05/10 06:13:24;;;;;;;7.80;3.40;;;;;;;;;;4958283;29;20051;-80
2022/05/10 06:16:10;;;;;;;10.27;3.80;;;;;;;;;;4958241;29;20043;-81
2022/05/10 06:18:54;;;;;;;11.88;3.65;;;;;;;;;;4957749;29;20039;-81
2022/05/10 06:21:41;;;;;;;9.93;3.92;;;;;;;;;;4957725;29;20047;-81
2022/05/10 06:24:27;;;;;;;10.98;4.32;;;;;;;;;;4957817;29;20047;-81
2022/05/10 06:27:15;;;;;;;12.90;4.35;;;;;;;;;;4957338;28;20039;-81
2022/05/10 06:30:00;;;;;;;8.05;4.00;;;;;;;;;;4958800;29;20048;-82
2022/05/10 06:32:46;;;;;;;8.07;4.28;;;;;;;;;;4957438;29;20043;-81
2022/05/10 06:35:31;;;;;;;7.50;3.28;;;;;;;;;;4964151;28;20051;-81
2022/05/10 06:38:19;;;;;;;8.30;3.65;;;;;;;;;;4958242;29;20405;-81
2022/05/10 06:41:07;;;;;;;8.63;4.05;;;;;;;;;;4957402;29;20051;-82
2022/05/10 06:43:53;;;;;;;10.20;4.03;;;;;;;;;;4956989;29;20074;-80
2022/05/10 06:46:44;;;;;;;10.23;4.15;;;;;;;;;;4949403;28;20039;-82
2022/05/10 06:49:29;;;;;;;8.32;4.20;;;;;;;;;;4957558;29;20047;-74
2022/05/10 06:52:18;;;;;;;11.43;4.22;;;;;;;;;;4963061;28;20493;-75
2022/05/10 06:55:05;;;;;;;10.77;4.40;;;;;;;;;;4963180;28;20059;-72
2022/05/10 06:57:52;;;;;;;18.27;4.30;;;;;;;;;;4956878;29;20051;-72
2022/05/10 07:00:40;;;;;;;10.65;4.50;;;;;;;;;;4963081;28;20055;-75
2022/05/10 07:03:28;;;;;;;12.40;4.57;;;;;;;;;;4956578;29;20048;-73
2022/05/10 07:06:16;;;;;;;767.42;649.88;;;;;;;;;;4955273;29;20055;-73
2022/05/10 07:09:01;;;;;;;497.67;340.42;;;;;;;;;;4956029;29;20473;-75
2022/05/10 07:11:47;;;;;;;221.20;133.13;;;;;;;;;;4955006;29;20055;-74
2022/05/10 07:14:32;;;;;;;346.75;264.27;;;;;;;;;;4954740;29;20051;-74
2022/05/10 07:17:19;;;;;;;474.08;413.70;;;;;;;;;;4955954;29;20480;-73
2022/05/10 07:20:12;;;;;;;12.80;4.90;;;;;;;;;;4954830;29;20047;-75
2022/05/10 07:22:57;;;;;;;8.75;3.88;;;;;;;;;;4966864;23;20051;-75
2022/05/10 07:25:42;;;;;;;10.75;3.88;;;;;;;;;;4956467;29;20055;-75
2022/05/10 07:28:29;;;;;;;9.82;5.10;;;;;;;;;;4956231;29;20047;-73
2022/05/10 07:31:16;;;;;;;11.18;5.28;;;;;;;;;;4956156;29;20055;-74
2022/05/10 07:34:02;;;;;;;10.00;4.10;;;;;;;;;;4956089;29;20043;-74
2022/05/10 07:36:46;;;;;;;11.93;3.85;;;;;;;;;;4963285;28;20402;-73
2022/05/10 07:39:31;;;;;;;10.82;3.47;;;;;;;;;;4961736;28;20077;-81
2022/05/10 07:42:17;;;;;;;9.60;3.25;;;;;;;;;;4958931;29;20043;-79
2022/05/10 07:45:08;;;;;;;5.88;3.15;;;;;;;;;;4957046;29;20055;-78
2022/05/10 07:47:54;;;;;;;6.32;3.80;;;;;;;;;;4956199;29;20055;-78
2022/05/10 07:50:39;;;;;;;11.13;3.90;;;;;;;;;;4948215;28;20069;-80
2022/05/10 07:53:25;;;;;;;7.18;3.90;;;;;;;;;;4962779;28;20051;-78
2022/05/10 07:56:12;;;;;;;7.45;3.67;;;;;;;;;;4962556;28;20047;-79
2022/05/10 07:58:58;;;;;;;11.63;3.95;;;;;;;;;;4962453;28;20046;-78
2022/05/10 08:01:43;;;;;;;13.65;3.90;;;;;;;;;;4948456;28;20047;-78
2022/05/10 08:04:30;;;;;;;16.20;4.07;;;;;;;;;;4956925;29;20055;-78
2022/05/10 08:07:17;;;;;;;9.95;3.60;;;;;;;;;;4963034;28;20039;-79
2022/05/10 08:10:04;;;;;;;8.55;3.72;;;;;;;;;;4956135;29;20485;-81
2022/05/10 08:12:50;;;;;;;13.10;6.03;;;;;;;;;;4962980;28;20051;-79
2022/05/10 08:15:36;;;;;;;9.40;3.83;;;;;;;;;;4962725;28;20047;-78
2022/05/10 08:18:23;;;;;;;10.02;3.83;;;;;;;;;;4964128;29;20047;-79
2022/05/10 08:21:08;;;;;;;9.13;3.67;;;;;;;;;;4968272;29;20055;-81
2022/05/10 08:23:55;;;;;;;11.63;3.67;;;;;;;;;;4955939;29;20051;-83
2022/05/10 08:26:40;;;;;;;8.60;3.58;;;;;;;;;;4957100;29;20047;-78
2022/05/10 08:29:26;;;;;;;8.07;3.03;;;;;;;;;;4962299;23;20059;-82
2022/05/10 08:32:11;;;;;;;7.45;3.25;;;;;;;;;;4956354;29;20047;-81
2022/05/10 08:34:56;;;;;;;10.40;3.45;;;;;;;;;;4955540;29;20035;-79
2022/05/10 08:37:42;;;;;;;10.70;3.95;;;;;;;;;;4962395;28;20051;-78
2022/05/10 08:40:30;;;;;;;10.70;3.60;;;;;;;;;;4955767;29;20047;-79
2022/05/10 08:43:21;;;;;;;9.52;3.25;;;;;;;;;;4956026;29;20047;-79
2022/05/10 08:46:10;;;;;;;6.88;2.88;;;;;;;;;;4962826;29;20047;-81
2022/05/10 08:49:01;;;;;;;8.40;3.38;;;;;;;;;;4964041;29;20035;-79
2022/05/10 08:51:52;;;;;;;8.23;3.45;;;;;;;;;;4959450;29;20043;-80
2022/05/10 08:54:39;;;;;;;7.20;3.22;;;;;;;;;;4965233;28;20047;-81
2022/05/10 08:57:30;;;;;;;13.32;3.90;;;;;;;;;;4951940;28;20039;-74
2022/05/10 09:00:25;;;;;;;16.42;4.00;;;;;;;;;;4960102;29;20051;-81
2022/05/10 09:03:45;;;;;;;15.02;3.65;;;;;;;;;;4962202;29;20051;-78
2022/05/10 09:06:52;;;;;;;8.13;3.40;;;;;;;;;;4965872;28;20484;-77
2022/05/10 09:09:53;;;;;;;11.73;3.67;;;;;;;;;;4959240;29;20047;-77
2022/05/10 09:13:11;;;;;;;10.05;3.63;;;;;;;;;;4958719;29;20047;-77
2022/05/10 09:15:58;;;;;;;9.77;3.50;;;;;;;;;;4955871;29;20401;-77
2022/05/10 09:18:52;;;;;;;8.63;3.10;;;;;;;;;;4965531;28;20051;-77
2022/05/10 09:21:50;;;;;;;13.83;3.47;;;;;;;;;;4965322;28;20047;-77
2022/05/10 09:24:53;;;;;;;16.00;3.45;;;;;;;;;;4959151;29;20044;-79
2022/05/10 09:27:39;;;;;;;12.50;3.28;;;;;;;;;;4962704;28;20051;-78
2022/05/10 09:30:29;;;;;;;12.93;3.47;;;;;;;;;;4945874;29;20056;-78
2022/05/10 09:36:29;;;;;;;7.22;3.63;;;;;;;;;;4945974;29;20044;-77
2022/05/10 09:39:23;;;;;;;10.63;3.80;;;;;;;;;;4945832;29;20397;-77
2022/05/10 09:42:23;;;;;;;;;;;;;;;;;;4946231;29;20043;-77
2022/05/10 09:45:26;;;;;;;14.27;3.50;;;;;;;;;;4945685;29;19914;-76
2022/05/10 09:48:17;;;;;;;7.72;3.90;;;;;;;;;;4949398;23;20047;-77
2022/05/10 09:51:21;;;;;;;7.50;3.13;;;;;;;;;;4940037;29;20048;-77
2022/05/10 09:54:31;;;;;;;8.45;3.13;;;;;;;;;;4939223;29;20052;-77
2022/05/10 09:57:36;;;;;;;9.65;3.33;;;;;;;;;;4937795;29;20039;-76
2022/05/10 10:00:42;;;;;;;11.45;3.58;;;;;;;;;;4958609;29;20047;-79
2022/05/10 10:03:32;;;;;;;9.45;3.58;;;;;;;;;;4957245;29;20047;-76
2022/05/10 10:06:20;;;;;;;11.52;3.20;;;;;;;;;;4964950;28;20055;-78
2022/05/10 10:09:05;;;;;;;10.15;4.22;;;;;;;;;;4964684;28;20048;-78
2022/05/10 10:11:52;;;;;;;7.20;3.75;;;;;;;;;;4964842;28;20043;-77
2022/05/10 10:14:48;;;;;;;7.55;3.13;;;;;;;;;;4963001;29;20047;-78
2022/05/10 10:17:37;;;;;;;7.00;2.92;;;;;;;;;;4959897;29;20047;-78
2022/05/10 10:20:30;;;;;;;9.50;3.25;;;;;;;;;;4964356;28;20493;-78
2022/05/10 10:23:27;;;;;;;8.85;3.40;;;;;;;;;;4961645;29;20047;-80
2022/05/10 10:26:16;;;;;;;12.95;2.85;;;;;;;;;;4967149;28;20044;-80
2022/05/10 10:29:07;;;;;;;4.75;2.78;;;;;;;;;;4962440;29;20051;-80
2022/05/10 10:32:02;;;;;;;8.57;3.23;;;;;;;;;;4959179;29;20474;-78
2022/05/10 10:35:07;;;;;;;7.22;3.08;;;;;;;;;;4963937;28;20055;-77
2022/05/10 10:38:05;;;;;;;7.50;3.47;;;;;;;;;;4957512;29;20043;-74
2022/05/10 10:41:40;;;;;;;8.13;3.58;;;;;;;;;;4963728;28;20039;-75
2022/05/10 10:44:34;;;;;;;6.67;3.53;;;;;;;;;;4952657;29;20127;-75
2022/05/10 11:02:01;;;;;;;7.22;3.00;;;;;;;;;;5061870;22;20057;-77
2022/05/10 11:17:13;;;;;;;6.40;2.70;;;;;;;;;;5006930;23;20053;-77
2022/05/10 11:20:27;;;;;;;5.45;2.75;;;;;;;;;;5074162;28;20394;-76
2022/05/10 11:23:33;;;;;;;9.93;3.22;;;;;;;;;;5075793;28;20048;-78
2022/05/10 11:26:27;;;;;;;8.82;3.33;;;;;;;;;;5070345;28;20045;-78
2022/05/10 11:29:35;;;;;;;6.80;3.20;;;;;;;;;;5069855;28;20045;-78
2022/05/10 11:32:28;;;;;;;4.20;3.25;;;;;;;;;;5066401;28;20048;-78
2022/05/10 11:35:41;;;;;;;6.65;3.25;;;;;;;;;;5075162;28;20045;-78
2022/05/10 11:38:55;;;;;;;5.30;3.13;;;;;;;;;;5076801;28;20048;-79
2022/05/10 11:41:49;;;;;;;8.03;3.40;;;;;;;;;;5077125;28;20048;-78
2022/05/10 11:44:34;;;;;;;10.10;2.83;;;;;;;;;;5071597;28;20048;-78
2022/05/10 11:47:28;;;;;;;7.35;3.25;;;;;;;;;;5075441;28;20048;-78
2022/05/10 11:50:36;;;;;;;6.38;3.13;;;;;;;;;;5076458;28;20391;-77
2022/05/10 11:54:11;;;;;;;6.93;2.80;;;;;;;;;;5076156;28;20037;-80
2022/05/10 11:56:58;;;;;;;9.60;2.90;;;;;;;;;;5045394;28;20447;-78
2022/05/10 11:59:45;;;;;;;5.65;2.78;;;;;;;;;;5065460;28;20049;-79
2022/05/10 12:02:30;;;;;;;6.75;3.20;;;;;;;;;;5063457;28;20045;-78
2022/05/10 12:05:30;;;;;;;7.13;3.20;;;;;;;;;;5055898;28;20048;-77
2022/05/10 12:08:15;;;;;;;5.78;3.15;;;;;;;;;;5059018;28;20044;-78
2022/05/10 12:11:32;;;;;;;6.78;3.22;;;;;;;;;;5062281;28;20371;-78
2022/05/10 12:21:52;;;;;;;12.43;3.80;;;;;;;;;;5054002;28;20475;-80
2022/05/10 12:24:44;;;;;;;8.93;3.05;;;;;;;;;;5057593;28;20426;-78
2022/05/10 12:27:32;;;;;;;7.25;3.53;;;;;;;;;;5061013;28;20053;-77
2022/05/10 12:30:31;;;;;;;11.70;4.63;;;;;;;;;;5062608;28;20052;-78
2022/05/10 12:33:34;;;;;;;9.32;4.20;;;;;;;;;;5055419;28;20057;-77
2022/05/10 12:36:31;;;;;;;12.98;3.90;;;;;;;;;;5058063;28;20048;-78
2022/05/10 12:39:29;;;;;;;7.82;4.28;;;;;;;;;;5055384;28;20044;-76
2022/05/10 12:42:25;;;;;;;5.68;4.03;;;;;;;;;;5062445;28;20045;-78
2022/05/10 12:45:32;;;;;;;5.40;4.07;;;;;;;;;;5061986;28;20045;-79
2022/05/10 12:48:55;;;;;;;5.88;4.28;;;;;;;;;;5062491;28;20037;-79
2022/05/10 12:52:02;;;;;;;16.88;6.82;;;;;;;;;;5062140;28;20045;-76
2022/05/10 12:54:53;;;;;;;14.80;4.68;;;;;;;;;;5062172;28;20040;-77
2022/05/10 12:57:37;;;;;;;13.68;7.25;;;;;;;;;;5061960;28;20052;-78
2022/05/10 13:00:40;;;;;;;17.05;7.80;;;;;;;;;;5055790;28;20049;-78
2022/05/10 13:03:37;;;;;;;13.40;6.40;;;;;;;;;;5056996;28;20057;-79
2022/05/10 13:06:41;;;;;;;9.80;5.45;;;;;;;;;;5061515;28;20045;-80
2022/05/10 13:09:35;;;;;;;12.13;6.05;;;;;;;;;;5061472;28;20049;-79
2022/05/10 13:12:44;;;;;;;18.98;6.60;;;;;;;;;;5060930;28;20053;-78
2022/05/10 13:15:30;;;;;;;32.75;10.07;;;;;;;;;;5054412;28;20669;-77
2022/05/10 13:18:21;;;;;;;19.95;7.28;;;;;;;;;;5061767;28;20057;-79
2022/05/10 13:21:08;;;;;;;17.27;7.68;;;;;;;;;;5063350;28;20053;-77
2022/05/10 13:23:55;;;;;;;15.95;6.60;;;;;;;;;;5063644;28;20459;-77
2022/05/10 13:26:52;;;;;;;16.42;6.07;;;;;;;;;;5062673;28;20403;-78
2022/05/10 13:29:48;;;;;;;10.43;4.80;;;;;;;;;;5055189;28;20041;-78
2022/05/10 13:32:38;;;;;;;10.18;3.90;;;;;;;;;;5061132;28;20048;-79
2022/05/10 13:35:25;;;;;;;14.80;5.28;;;;;;;;;;5060888;28;20057;-77
2022/05/10 13:38:16;;;;;;;11.70;5.63;;;;;;;;;;5061048;28;20052;-79
2022/05/10 13:41:05;;;;;;;14.35;6.03;;;;;;;;;;5054087;28;20049;-78
2022/05/10 13:43:56;;;;;;;17.25;6.07;;;;;;;;;;5061390;28;20049;-77
2022/05/10 13:46:51;;;;;;;14.57;6.22;;;;;;;;;;5054854;28;20391;-78
2022/05/10 13:49:44;;;;;;;;;;;;;;;;;;5061037;28;20472;-77
2022/05/10 13:52:34;;;;;;;5.05;2.50;;;;;;;;;;5054161;28;20302;-77
2022/05/10 13:55:20;;;;;;;15.27;3.33;;;;;;;;;;5060464;28;20053;-77
2022/05/10 13:58:08;;;;;;;5.38;2.40;;;;;;;;;;5060943;28;20052;-79
2022/05/10 14:00:54;;;;;;;3.05;1.90;;;;;;;;;;5054380;28;20045;-79
2022/05/10 14:03:43;;;;;;;6.20;2.28;;;;;;;;;;5060144;28;20045;-79
2022/05/10 14:06:29;;;;;;;6.03;2.00;;;;;;;;;;5054249;28;20052;-77
2022/05/10 14:09:24;;;;;;;9.35;2.58;;;;;;;;;;5060113;28;20041;-78
2022/05/10 14:12:23;;;;;;;4.03;2.08;;;;;;;;;;5052631;28;20052;-77
2022/05/10 14:15:08;;;;;;;5.05;2.50;;;;;;;;;;5052470;28;20045;-78
2022/05/10 14:17:57;;;;;;;13.93;2.60;;;;;;;;;;5060187;28;20049;-77
2022/05/10 14:20:47;;;;;;;3.47;2.20;;;;;;;;;;5060473;28;20053;-77
2022/05/10 14:23:34;;;;;;;6.65;2.80;;;;;;;;;;5053071;28;20049;-79
2022/05/10 14:26:23;;;;;;;4.07;2.30;;;;;;;;;;5060459;28;20406;-77
2022/05/10 14:29:18;;;;;;;2.72;1.40;;;;;;;;;;5053767;28;20033;-77
2022/05/10 14:32:06;;;;;;;3.10;1.70;;;;;;;;;;5045057;28;20479;-77
2022/05/10 14:34:56;;;;;;;6.25;2.65;;;;;;;;;;5060346;28;20395;-77
2022/05/10 14:37:48;;;;;;;5.32;2.20;;;;;;;;;;5060281;28;20052;-76
2022/05/10 14:40:36;;;;;;;4.50;2.47;;;;;;;;;;5053987;28;20045;-78
2022/05/10 14:43:22;;;;;;;5.68;2.50;;;;;;;;;;5060280;28;20049;-75
2022/05/10 14:46:30;;;;;;;5.22;2.80;;;;;;;;;;5060019;28;20048;-77
2022/05/10 14:49:34;;;;;;;5.80;2.25;;;;;;;;;;5059935;28;20045;-77
2022/05/10 14:52:36;;;;;;;10.17;2.37;;;;;;;;;;5053655;28;20052;-75
2022/05/10 14:55:33;;;;;;;6.88;2.08;;;;;;;;;;5038622;28;20391;-76
2022/05/10 14:58:27;;;;;;;3.00;2.00;;;;;;;;;;5059683;28;20048;-78
2022/05/10 15:01:35;;;;;;;4.25;2.55;;;;;;;;;;5053161;28;20451;-78
2022/05/10 15:04:20;;;;;;;5.60;2.60;;;;;;;;;;5060119;28;20041;-77
2022/05/10 15:07:05;;;;;;;6.95;2.72;;;;;;;;;;5051624;28;20053;-78
2022/05/10 15:09:52;;;;;;;9.90;3.35;;;;;;;;;;5059835;28;20414;-77
2022/05/10 15:15:48;;;;;;;7.57;3.78;;;;;;;;;;5058076;28;20053;-77
2022/05/10 15:21:41;;;;;;;7.45;3.47;;;;;;;;;;5059727;28;20045;-75
2022/05/10 15:24:28;;;;;;;7.25;3.90;;;;;;;;;;5053263;28;20045;-76
2022/05/10 15:27:23;;;;;;;7.07;3.35;;;;;;;;;;5052897;28;20045;-78
2022/05/10 15:30:10;;;;;;;7.40;3.50;;;;;;;;;;5059481;28;20041;-77
2022/05/10 15:32:55;;;;;;;5.32;3.20;;;;;;;;;;5060150;28;20045;-78
2022/05/10 15:35:41;;;;;;;6.10;4.03;;;;;;;;;;5062977;28;20049;-77
2022/05/10 15:38:27;;;;;;;7.65;3.95;;;;;;;;;;5063647;28;20049;-77
2022/05/10 15:41:14;;;;;;;5.88;3.70;;;;;;;;;;5055792;28;20048;-77
2022/05/10 15:43:58;;;;;;;8.75;4.20;;;;;;;;;;5063300;28;20045;-77
2022/05/10 15:46:43;;;;;;;7.60;3.92;;;;;;;;;;5063386;28;20049;-78
2022/05/10 15:49:29;;;;;;;6.95;3.83;;;;;;;;;;5056272;28;20045;-77
2022/05/10 15:52:14;;;;;;;9.27;4.35;;;;;;;;;;5063596;28;20048;-77
2022/05/10 15:55:00;;;;;;;13.95;6.20;;;;;;;;;;5056709;28;20049;-77
2022/05/10 15:57:46;;;;;;;12.85;4.22;;;;;;;;;;5065116;28;20052;-79
2022/05/10 16:00:31;;;;;;;8.65;4.00;;;;;;;;;;5064049;28;20049;-77
2022/05/10 16:03:17;;;;;;;9.88;4.07;;;;;;;;;;5056402;28;20041;-78
2022/05/10 16:06:03;;;;;;;26.45;6.00;;;;;;;;;;5063366;28;20049;-78
2022/05/10 16:08:48;;;;;;;9.38;3.33;;;;;;;;;;5062616;28;20480;-78
2022/05/10 16:11:34;;;;;;;9.57;4.50;;;;;;;;;;5047897;28;20045;-78
2022/05/10 16:14:20;;;;;;;14.70;6.85;;;;;;;;;;5062808;28;20044;-78
2022/05/10 16:17:05;;;;;;;9.48;5.28;;;;;;;;;;5056592;28;20049;-78
2022/05/10 16:19:50;;;;;;;13.70;5.05;;;;;;;;;;5055574;28;20045;-77
2022/05/10 16:22:37;;;;;;;12.77;5.18;;;;;;;;;;5059834;28;20040;-77
2022/05/10 16:25:22;;;;;;;13.02;4.72;;;;;;;;;;5048378;28;20049;-78
2022/05/10 16:31:28;;;;;;;17.48;6.03;;;;;;;;;;5016254;28;20068;-78
2022/05/10 16:34:13;;;;;;;10.73;6.03;;;;;;;;;;5062328;28;20041;-77
2022/05/10 16:36:59;;;;;;;8.23;5.70;;;;;;;;;;5061917;28;20048;-78
2022/05/10 16:39:45;;;;;;;8.77;5.10;;;;;;;;;;5062114;28;20045;-77
2022/05/10 16:42:30;;;;;;;11.77;5.53;;;;;;;;;;5060815;28;20044;-78
2022/05/10 16:45:16;;;;;;;10.52;4.75;;;;;;;;;;5054112;28;20395;-78
2022/05/10 16:48:01;;;;;;;15.88;5.22;;;;;;;;;;5061810;28;20044;-78
2022/05/10 16:50:55;;;;;;;6.90;3.78;;;;;;;;;;5061885;28;20414;-77
2022/05/10 16:53:40;;;;;;;13.32;4.55;;;;;;;;;;5062811;28;20061;-78
2022/05/10 16:56:26;;;;;;;10.40;4.60;;;;;;;;;;5063749;28;20375;-79
2022/05/10 16:59:12;;;;;;;10.20;4.57;;;;;;;;;;5061830;28;20049;-78
2022/05/10 17:01:59;;;;;;;6.88;3.90;;;;;;;;;;5062275;28;20048;-78
2022/05/10 17:04:52;;;;;;;13.32;4.50;;;;;;;;;;5061909;28;20045;-80
2022/05/10 17:07:43;;;;;;;16.77;4.20;;;;;;;;;;5061662;28;20045;-77
2022/05/10 17:10:28;;;;;;;15.98;4.72;;;;;;;;;;5061873;28;20495;-78
2022/05/10 17:13:13;;;;;;;16.33;6.13;;;;;;;;;;5061563;28;20399;-76
2022/05/10 17:16:00;;;;;;;26.30;5.80;;;;;;;;;;5059094;28;20395;-79
2022/05/10 17:18:45;;;;;;;16.75;5.38;;;;;;;;;;5061636;28;20052;-78
2022/05/10 17:21:31;;;;;;;13.32;5.28;;;;;;;;;;5061354;28;20045;-78
2022/05/10 17:24:17;;;;;;;16.52;5.65;;;;;;;;;;5061539;28;20044;-77
2022/05/10 17:27:12;;;;;;;15.10;7.30;;;;;;;;;;5061245;28;20045;-79
2022/05/10 17:29:58;;;;;;;22.25;10.05;;;;;;;;;;5061255;28;20049;-77
2022/05/10 17:32:44;;;;;;;27.10;8.65;;;;;;;;;;5054356;28;20045;-80
2022/05/10 17:35:35;;;;;;;19.70;8.85;;;;;;;;;;5054507;28;20037;-77
2022/05/10 17:38:21;;;;;;;17.95;8.10;;;;;;;;;;5061652;28;20491;-77
2022/05/10 17:41:06;;;;;;;25.70;9.70;;;;;;;;;;5060912;28;20044;-78
2022/05/10 17:43:57;;;;;;;21.40;9.20;;;;;;;;;;5061209;28;20395;-76
2022/05/10 17:46:49;;;;;;;14.05;7.80;;;;;;;;;;5060827;28;20467;-79